sensor_id;sensor_type;location;lat;lon;timestamp;temperature;humidity
70368;DHT22;57789;53.868;10.728;2023-02-18T00:00:16;7.20;99.90
70368;DHT22;57789;53.868;10.728;2023-02-18T00:02:43;7.20;99.90
70368;DHT22;57789;53.868;10.728;2023-02-18T00:05:12;7.20;99.90
70368;DHT22;57789;53.868;10.728;2023-02-18T00:07:39;7.20;99.90
70368;DHT22;57789;53.868;10.728;2023-02-18T00:10:07;7.20;99.90
70368;DHT22;57789;53.868;10.728;2023-02-18T00:12:33;7.10;99.90
70368;DHT22;57789;53.868;10.728;2023-02-18T00:14:59;7.10;99.90
70368;DHT22;57789;53.868;10.728;2023-02-18T00:17:25;7.10;99.90
70368;DHT22;57789;53.868;10.728;2023-02-18T00:19:51;7.10;99.90
70368;DHT22;57789;53.868;10.728;2023-02-18T00:22:17;7.00;99.90
70368;DHT22;57789;53.868;10.728;2023-02-18T00:24:42;7.00;99.90
70368;DHT22;57789;53.868;10.728;2023-02-18T00:27:09;7.00;99.90
70368;DHT22;57789;53.868;10.728;2023-02-18T00:29:34;7.00;99.90
70368;DHT22;57789;53.868;10.728;2023-02-18T00:32:00;7.00;99.90
70368;DHT22;57789;53.868;10.728;2023-02-18T00:34:26;7.00;99.90
70368;DHT22;57789;53.868;10.728;2023-02-18T00:36:51;7.00;99.90
70368;DHT22;57789;53.868;10.728;2023-02-18T00:39:17;7.00;99.90
70368;DHT22;57789;53.868;10.728;2023-02-18T00:41:43;6.90;99.90
70368;DHT22;57789;53.868;10.728;2023-02-18T00:44:10;6.90;99.90
70368;DHT22;57789;53.868;10.728;2023-02-18T00:46:37;6.90;99.90
70368;DHT22;57789;53.868;10.728;2023-02-18T00:49:04;6.90;99.90
70368;DHT22;57789;53.868;10.728;2023-02-18T00:51:30;6.90;99.90
70368;DHT22;57789;53.868;10.728;2023-02-18T00:53:56;6.90;99.90
70368;DHT22;57789;53.868;10.728;2023-02-18T00:56:22;6.90;99.90
70368;DHT22;57789;53.868;10.728;2023-02-18T00:58:49;6.90;99.90
70368;DHT22;57789;53.868;10.728;2023-02-18T01:01:14;6.90;99.90
70368;DHT22;57789;53.868;10.728;2023-02-18T01:03:41;6.90;99.90
70368;DHT22;57789;53.868;10.728;2023-02-18T01:06:08;6.80;99.90
70368;DHT22;57789;53.868;10.728;2023-02-18T01:08:34;6.80;99.90
70368;DHT22;57789;53.868;10.728;2023-02-18T01:11:00;6.80;99.90
70368;DHT22;57789;53.868;10.728;2023-02-18T01:13:27;6.80;99.90
70368;DHT22;57789;53.868;10.728;2023-02-18T01:15:53;6.80;99.90
70368;DHT22;57789;53.868;10.728;2023-02-18T01:18:19;6.70;99.90
70368;DHT22;57789;53.868;10.728;2023-02-18T01:20:45;6.80;99.90
70368;DHT22;57789;53.868;10.728;2023-02-18T01:23:12;6.70;99.90
70368;DHT22;57789;53.868;10.728;2023-02-18T01:25:38;6.70;99.90
70368;DHT22;57789;53.868;10.728;2023-02-18T01:28:05;6.70;99.90
70368;DHT22;57789;53.868;10.728;2023-02-18T01:30:32;6.70;99.90
70368;DHT22;57789;53.868;10.728;2023-02-18T01:32:58;6.70;99.90
70368;DHT22;57789;53.868;10.728;2023-02-18T01:35:24;6.70;99.90
70368;DHT22;57789;53.868;10.728;2023-02-18T01:37:51;6.70;99.90
70368;DHT22;57789;53.868;10.728;2023-02-18T01:40:20;6.70;99.90
70368;DHT22;57789;53.868;10.728;2023-02-18T01:42:46;6.60;99.90
70368;DHT22;57789;53.868;10.728;2023-02-18T01:47:56;6.60;99.90
70368;DHT22;57789;53.868;10.728;2023-02-18T01:50:22;6.60;99.90
70368;DHT22;57789;53.868;10.728;2023-02-18T01:52:48;6.60;99.90
70368;DHT22;57789;53.868;10.728;2023-02-18T01:55:14;6.60;99.90
70368;DHT22;57789;53.868;10.728;2023-02-18T01:57:40;6.50;99.90
70368;DHT22;57789;53.868;10.728;2023-02-18T02:00:12;6.50;99.90
70368;DHT22;57789;53.868;10.728;2023-02-18T02:02:41;6.60;99.90
70368;DHT22;57789;53.868;10.728;2023-02-18T02:05:08;6.50;99.90
70368;DHT22;57789;53.868;10.728;2023-02-18T02:07:33;6.50;99.90
70368;DHT22;57789;53.868;10.728;2023-02-18T02:09:59;6.50;99.90
70368;DHT22;57789;53.868;10.728;2023-02-18T02:18:04;6.50;99.90
70368;DHT22;57789;53.868;10.728;2023-02-18T02:29:03;6.50;99.90
70368;DHT22;57789;53.868;10.728;2023-02-18T02:46:12;6.40;99.90
70368;DHT22;57789;53.868;10.728;2023-02-18T02:48:51;6.40;99.90
70368;DHT22;57789;53.868;10.728;2023-02-18T02:52:09;6.40;99.90
70368;DHT22;57789;53.868;10.728;2023-02-18T02:54:36;6.30;99.90
70368;DHT22;57789;53.868;10.728;2023-02-18T02:59:40;6.30;99.90
70368;DHT22;57789;53.868;10.728;2023-02-18T03:02:41;6.20;99.90
70368;DHT22;57789;53.868;10.728;2023-02-18T03:13:44;6.20;99.90
70368;DHT22;57789;53.868;10.728;2023-02-18T03:21:56;6.20;99.90
70368;DHT22;57789;53.868;10.728;2023-02-18T03:24:41;6.10;99.90
70368;DHT22;57789;53.868;10.728;2023-02-18T03:27:32;6.10;99.90
70368;DHT22;57789;53.868;10.728;2023-02-18T03:30:12;6.10;99.90
70368;DHT22;57789;53.868;10.728;2023-02-18T03:32:39;6.00;99.90
70368;DHT22;57789;53.868;10.728;2023-02-18T03:35:12;6.00;99.90
70368;DHT22;57789;53.868;10.728;2023-02-18T03:37:46;6.00;99.90
70368;DHT22;57789;53.868;10.728;2023-02-18T03:40:13;6.00;99.90
70368;DHT22;57789;53.868;10.728;2023-02-18T03:42:38;5.90;99.90
70368;DHT22;57789;53.868;10.728;2023-02-18T03:45:04;5.90;99.90
70368;DHT22;57789;53.868;10.728;2023-02-18T03:47:30;5.90;99.90
70368;DHT22;57789;53.868;10.728;2023-02-18T03:49:56;5.90;99.90
70368;DHT22;57789;53.868;10.728;2023-02-18T03:52:21;5.90;99.90
70368;DHT22;57789;53.868;10.728;2023-02-18T03:54:47;5.90;99.90
70368;DHT22;57789;53.868;10.728;2023-02-18T03:57:13;5.80;99.90
70368;DHT22;57789;53.868;10.728;2023-02-18T03:59:38;5.80;99.90
70368;DHT22;57789;53.868;10.728;2023-02-18T04:02:04;5.80;99.90
70368;DHT22;57789;53.868;10.728;2023-02-18T04:04:29;5.80;99.90
70368;DHT22;57789;53.868;10.728;2023-02-18T04:06:55;5.90;99.90
70368;DHT22;57789;53.868;10.728;2023-02-18T04:09:21;5.90;99.90
70368;DHT22;57789;53.868;10.728;2023-02-18T04:11:47;5.90;99.90
70368;DHT22;57789;53.868;10.728;2023-02-18T04:14:13;5.90;99.90
70368;DHT22;57789;53.868;10.728;2023-02-18T04:16:39;6.00;99.90
70368;DHT22;57789;53.868;10.728;2023-02-18T04:19:05;6.00;99.90
70368;DHT22;57789;53.868;10.728;2023-02-18T04:21:32;6.00;99.90
70368;DHT22;57789;53.868;10.728;2023-02-18T04:23:59;6.00;99.90
70368;DHT22;57789;53.868;10.728;2023-02-18T04:26:26;6.00;99.90
70368;DHT22;57789;53.868;10.728;2023-02-18T04:28:51;6.00;99.90
70368;DHT22;57789;53.868;10.728;2023-02-18T04:31:17;6.10;99.90
70368;DHT22;57789;53.868;10.728;2023-02-18T04:33:43;6.10;99.90
70368;DHT22;57789;53.868;10.728;2023-02-18T04:36:09;6.20;99.90
70368;DHT22;57789;53.868;10.728;2023-02-18T04:38:34;6.20;99.90
70368;DHT22;57789;53.868;10.728;2023-02-18T04:41:00;6.20;99.90
70368;DHT22;57789;53.868;10.728;2023-02-18T04:43:26;6.30;99.90
70368;DHT22;57789;53.868;10.728;2023-02-18T04:45:51;6.20;99.90
70368;DHT22;57789;53.868;10.728;2023-02-18T04:48:20;6.30;99.90
70368;DHT22;57789;53.868;10.728;2023-02-18T04:50:46;6.30;99.90
70368;DHT22;57789;53.868;10.728;2023-02-18T04:53:11;6.30;99.90
70368;DHT22;57789;53.868;10.728;2023-02-18T04:55:37;6.30;99.90
70368;DHT22;57789;53.868;10.728;2023-02-18T04:58:03;6.30;99.90
70368;DHT22;57789;53.868;10.728;2023-02-18T05:00:28;6.40;99.90
70368;DHT22;57789;53.868;10.728;2023-02-18T05:02:54;6.40;99.90
70368;DHT22;57789;53.868;10.728;2023-02-18T05:05:20;6.40;99.90
70368;DHT22;57789;53.868;10.728;2023-02-18T05:07:45;6.40;99.90
70368;DHT22;57789;53.868;10.728;2023-02-18T05:10:15;6.40;99.90
70368;DHT22;57789;53.868;10.728;2023-02-18T05:12:41;6.40;99.90
70368;DHT22;57789;53.868;10.728;2023-02-18T05:15:07;6.50;99.90
70368;DHT22;57789;53.868;10.728;2023-02-18T05:17:33;6.50;99.90
70368;DHT22;57789;53.868;10.728;2023-02-18T05:19:59;6.40;99.90
70368;DHT22;57789;53.868;10.728;2023-02-18T05:22:25;6.40;99.90
70368;DHT22;57789;53.868;10.728;2023-02-18T05:24:51;6.40;99.90
70368;DHT22;57789;53.868;10.728;2023-02-18T05:27:16;6.40;99.90
70368;DHT22;57789;53.868;10.728;2023-02-18T05:29:42;6.30;99.90
70368;DHT22;57789;53.868;10.728;2023-02-18T05:32:08;6.30;99.90
70368;DHT22;57789;53.868;10.728;2023-02-18T05:34:33;6.30;99.90
70368;DHT22;57789;53.868;10.728;2023-02-18T05:36:59;6.30;99.90
70368;DHT22;57789;53.868;10.728;2023-02-18T05:39:25;6.20;99.90
70368;DHT22;57789;53.868;10.728;2023-02-18T05:41:50;6.20;99.90
70368;DHT22;57789;53.868;10.728;2023-02-18T05:44:16;6.20;99.90
70368;DHT22;57789;53.868;10.728;2023-02-18T05:46:59;6.10;99.90
70368;DHT22;57789;53.868;10.728;2023-02-18T05:49:25;6.10;99.90
70368;DHT22;57789;53.868;10.728;2023-02-18T05:51:51;6.10;99.90
70368;DHT22;57789;53.868;10.728;2023-02-18T05:54:17;6.10;99.90
70368;DHT22;57789;53.868;10.728;2023-02-18T05:56:42;6.10;99.90
70368;DHT22;57789;53.868;10.728;2023-02-18T05:59:08;6.10;99.90
70368;DHT22;57789;53.868;10.728;2023-02-18T06:01:34;6.10;99.90
70368;DHT22;57789;53.868;10.728;2023-02-18T06:03:59;6.10;99.90
70368;DHT22;57789;53.868;10.728;2023-02-18T06:06:25;6.10;99.90
70368;DHT22;57789;53.868;10.728;2023-02-18T06:08:50;6.10;99.90
70368;DHT22;57789;53.868;10.728;2023-02-18T06:11:16;6.10;99.90
70368;DHT22;57789;53.868;10.728;2023-02-18T06:13:42;6.10;99.90
70368;DHT22;57789;53.868;10.728;2023-02-18T06:16:07;6.00;99.90
70368;DHT22;57789;53.868;10.728;2023-02-18T06:18:33;6.00;99.90
70368;DHT22;57789;53.868;10.728;2023-02-18T06:20:59;6.10;99.90
70368;DHT22;57789;53.868;10.728;2023-02-18T06:23:25;6.10;99.90
70368;DHT22;57789;53.868;10.728;2023-02-18T06:25:50;6.10;99.90
70368;DHT22;57789;53.868;10.728;2023-02-18T06:28:16;6.10;99.90
70368;DHT22;57789;53.868;10.728;2023-02-18T06:30:43;6.10;99.90
70368;DHT22;57789;53.868;10.728;2023-02-18T06:33:09;6.10;99.90
70368;DHT22;57789;53.868;10.728;2023-02-18T06:35:35;6.10;99.90
70368;DHT22;57789;53.868;10.728;2023-02-18T06:38:01;6.10;99.90
70368;DHT22;57789;53.868;10.728;2023-02-18T06:40:26;6.10;99.90
70368;DHT22;57789;53.868;10.728;2023-02-18T06:42:52;6.10;99.90
70368;DHT22;57789;53.868;10.728;2023-02-18T06:45:18;6.00;99.90
70368;DHT22;57789;53.868;10.728;2023-02-18T06:47:43;6.00;99.90
70368;DHT22;57789;53.868;10.728;2023-02-18T06:50:09;6.00;99.90
70368;DHT22;57789;53.868;10.728;2023-02-18T06:52:35;6.00;99.90
70368;DHT22;57789;53.868;10.728;2023-02-18T06:55:06;5.90;99.90
70368;DHT22;57789;53.868;10.728;2023-02-18T06:57:32;5.90;99.90
70368;DHT22;57789;53.868;10.728;2023-02-18T06:59:58;5.90;99.90
70368;DHT22;57789;53.868;10.728;2023-02-18T07:02:24;6.00;99.90
70368;DHT22;57789;53.868;10.728;2023-02-18T07:04:49;6.00;99.90
70368;DHT22;57789;53.868;10.728;2023-02-18T07:07:15;5.90;99.90
70368;DHT22;57789;53.868;10.728;2023-02-18T07:09:41;6.00;99.90
70368;DHT22;57789;53.868;10.728;2023-02-18T07:12:06;6.00;99.90
70368;DHT22;57789;53.868;10.728;2023-02-18T07:14:32;6.00;99.90
70368;DHT22;57789;53.868;10.728;2023-02-18T07:16:58;6.00;99.90
70368;DHT22;57789;53.868;10.728;2023-02-18T07:19:23;6.10;99.90
70368;DHT22;57789;53.868;10.728;2023-02-18T07:21:49;5.90;99.90
70368;DHT22;57789;53.868;10.728;2023-02-18T07:24:15;6.00;99.90
70368;DHT22;57789;53.868;10.728;2023-02-18T07:26:41;5.90;99.90
70368;DHT22;57789;53.868;10.728;2023-02-18T07:29:06;6.00;99.90
70368;DHT22;57789;53.868;10.728;2023-02-18T07:31:32;6.00;99.90
70368;DHT22;57789;53.868;10.728;2023-02-18T07:33:58;6.00;99.90
70368;DHT22;57789;53.868;10.728;2023-02-18T07:36:23;6.00;99.90
70368;DHT22;57789;53.868;10.728;2023-02-18T07:38:49;6.00;99.90
70368;DHT22;57789;53.868;10.728;2023-02-18T07:41:19;6.00;99.90
70368;DHT22;57789;53.868;10.728;2023-02-18T07:43:45;6.00;99.90
70368;DHT22;57789;53.868;10.728;2023-02-18T07:46:11;6.00;99.90
70368;DHT22;57789;53.868;10.728;2023-02-18T07:48:37;6.00;99.90
70368;DHT22;57789;53.868;10.728;2023-02-18T07:51:07;6.00;99.90
70368;DHT22;57789;53.868;10.728;2023-02-18T07:53:33;6.00;99.90
70368;DHT22;57789;53.868;10.728;2023-02-18T07:55:59;6.10;99.90
70368;DHT22;57789;53.868;10.728;2023-02-18T07:58:28;6.10;99.90
70368;DHT22;57789;53.868;10.728;2023-02-18T08:00:54;6.10;99.90
70368;DHT22;57789;53.868;10.728;2023-02-18T08:03:23;6.10;99.90
70368;DHT22;57789;53.868;10.728;2023-02-18T08:05:50;6.00;99.90
70368;DHT22;57789;53.868;10.728;2023-02-18T08:08:23;6.00;99.90
70368;DHT22;57789;53.868;10.728;2023-02-18T08:10:51;6.00;99.90
70368;DHT22;57789;53.868;10.728;2023-02-18T08:13:17;5.90;99.90
70368;DHT22;57789;53.868;10.728;2023-02-18T08:15:43;6.00;99.90
70368;DHT22;57789;53.868;10.728;2023-02-18T08:18:17;5.90;99.90
70368;DHT22;57789;53.868;10.728;2023-02-18T08:20:45;6.00;99.90
70368;DHT22;57789;53.868;10.728;2023-02-18T08:23:14;6.00;99.90
70368;DHT22;57789;53.868;10.728;2023-02-18T08:25:45;5.90;99.90
70368;DHT22;57789;53.868;10.728;2023-02-18T08:28:11;5.90;99.90
70368;DHT22;57789;53.868;10.728;2023-02-18T08:30:36;5.80;99.90
70368;DHT22;57789;53.868;10.728;2023-02-18T08:33:05;5.80;99.90
70368;DHT22;57789;53.868;10.728;2023-02-18T08:35:31;5.70;99.90
70368;DHT22;57789;53.868;10.728;2023-02-18T08:37:56;5.70;99.90
70368;DHT22;57789;53.868;10.728;2023-02-18T08:40:22;5.70;99.90
70368;DHT22;57789;53.868;10.728;2023-02-18T08:42:48;5.70;99.90
70368;DHT22;57789;53.868;10.728;2023-02-18T08:45:14;5.70;99.90
70368;DHT22;57789;53.868;10.728;2023-02-18T08:47:39;5.70;99.90
70368;DHT22;57789;53.868;10.728;2023-02-18T08:50:05;5.60;99.90
70368;DHT22;57789;53.868;10.728;2023-02-18T08:52:31;5.60;99.90
70368;DHT22;57789;53.868;10.728;2023-02-18T08:54:56;5.50;99.90
70368;DHT22;57789;53.868;10.728;2023-02-18T08:57:22;5.50;99.90
70368;DHT22;57789;53.868;10.728;2023-02-18T08:59:48;5.50;99.90
70368;DHT22;57789;53.868;10.728;2023-02-18T09:02:14;5.50;99.90
70368;DHT22;57789;53.868;10.728;2023-02-18T09:04:40;5.40;99.90
70368;DHT22;57789;53.868;10.728;2023-02-18T09:07:05;5.40;99.90
70368;DHT22;57789;53.868;10.728;2023-02-18T09:09:31;5.40;99.90
70368;DHT22;57789;53.868;10.728;2023-02-18T09:11:57;5.30;99.90
70368;DHT22;57789;53.868;10.728;2023-02-18T09:14:23;5.40;99.90
70368;DHT22;57789;53.868;10.728;2023-02-18T09:16:48;5.50;99.90
70368;DHT22;57789;53.868;10.728;2023-02-18T09:19:15;5.50;99.90
70368;DHT22;57789;53.868;10.728;2023-02-18T09:21:41;5.50;99.90
70368;DHT22;57789;53.868;10.728;2023-02-18T09:24:07;5.60;99.90
70368;DHT22;57789;53.868;10.728;2023-02-18T09:26:34;5.60;99.90
70368;DHT22;57789;53.868;10.728;2023-02-18T09:29:00;5.70;99.90
70368;DHT22;57789;53.868;10.728;2023-02-18T09:31:27;5.60;99.90
70368;DHT22;57789;53.868;10.728;2023-02-18T09:33:58;5.70;99.90
70368;DHT22;57789;53.868;10.728;2023-02-18T09:36:24;5.70;99.90
70368;DHT22;57789;53.868;10.728;2023-02-18T09:38:50;5.60;99.90
70368;DHT22;57789;53.868;10.728;2023-02-18T09:41:35;5.80;99.90
70368;DHT22;57789;53.868;10.728;2023-02-18T09:49:31;5.80;99.90
70368;DHT22;57789;53.868;10.728;2023-02-18T09:52:15;5.80;99.90
70368;DHT22;57789;53.868;10.728;2023-02-18T09:54:41;5.90;99.90
70368;DHT22;57789;53.868;10.728;2023-02-18T10:00:09;5.90;99.90
70368;DHT22;57789;53.868;10.728;2023-02-18T10:02:41;5.90;99.90
70368;DHT22;57789;53.868;10.728;2023-02-18T10:05:14;6.00;99.90
70368;DHT22;57789;53.868;10.728;2023-02-18T10:07:41;6.00;99.90
70368;DHT22;57789;53.868;10.728;2023-02-18T10:12:44;6.10;99.90
70368;DHT22;57789;53.868;10.728;2023-02-18T10:15:19;6.20;99.90
70368;DHT22;57789;53.868;10.728;2023-02-18T10:17:47;6.20;99.90
70368;DHT22;57789;53.868;10.728;2023-02-18T10:20:16;6.10;99.90
70368;DHT22;57789;53.868;10.728;2023-02-18T10:22:44;5.80;99.90
70368;DHT22;57789;53.868;10.728;2023-02-18T10:25:17;5.90;99.90
70368;DHT22;57789;53.868;10.728;2023-02-18T10:27:43;5.90;99.90
70368;DHT22;57789;53.868;10.728;2023-02-18T10:30:39;6.00;99.90
70368;DHT22;57789;53.868;10.728;2023-02-18T10:35:52;6.20;99.90
70368;DHT22;57789;53.868;10.728;2023-02-18T10:43:40;6.00;99.90
70368;DHT22;57789;53.868;10.728;2023-02-18T10:49:03;5.90;99.90
70368;DHT22;57789;53.868;10.728;2023-02-18T10:51:34;5.90;99.90
70368;DHT22;57789;53.868;10.728;2023-02-18T10:54:01;6.00;99.90
70368;DHT22;57789;53.868;10.728;2023-02-18T10:56:41;6.20;99.90
70368;DHT22;57789;53.868;10.728;2023-02-18T10:59:24;6.20;99.90
70368;DHT22;57789;53.868;10.728;2023-02-18T11:02:18;6.30;99.90
70368;DHT22;57789;53.868;10.728;2023-02-18T11:04:45;6.30;99.90
70368;DHT22;57789;53.868;10.728;2023-02-18T11:07:29;6.20;99.90
70368;DHT22;57789;53.868;10.728;2023-02-18T11:10:01;6.30;99.90
70368;DHT22;57789;53.868;10.728;2023-02-18T11:12:59;6.40;99.90
70368;DHT22;57789;53.868;10.728;2023-02-18T11:15:27;6.40;99.90
70368;DHT22;57789;53.868;10.728;2023-02-18T11:17:55;6.40;99.90
70368;DHT22;57789;53.868;10.728;2023-02-18T11:20:29;6.40;99.90
70368;DHT22;57789;53.868;10.728;2023-02-18T11:23:16;6.50;99.90
70368;DHT22;57789;53.868;10.728;2023-02-18T11:25:54;6.60;99.90
70368;DHT22;57789;53.868;10.728;2023-02-18T11:30:47;6.70;99.90
70368;DHT22;57789;53.868;10.728;2023-02-18T11:35:49;6.80;99.90
70368;DHT22;57789;53.868;10.728;2023-02-18T11:41:20;6.70;99.90
70368;DHT22;57789;53.868;10.728;2023-02-18T11:43:51;6.60;99.90
70368;DHT22;57789;53.868;10.728;2023-02-18T11:46:20;6.60;99.90
70368;DHT22;57789;53.868;10.728;2023-02-18T11:48:47;6.60;99.90
70368;DHT22;57789;53.868;10.728;2023-02-18T11:51:32;6.70;99.90
70368;DHT22;57789;53.868;10.728;2023-02-18T11:54:04;6.60;99.90
70368;DHT22;57789;53.868;10.728;2023-02-18T11:56:35;6.70;99.90
70368;DHT22;57789;53.868;10.728;2023-02-18T11:59:02;6.60;99.90
70368;DHT22;57789;53.868;10.728;2023-02-18T12:01:35;6.60;99.90
70368;DHT22;57789;53.868;10.728;2023-02-18T12:04:15;6.50;99.90
70368;DHT22;57789;53.868;10.728;2023-02-18T12:09:28;6.50;99.90
70368;DHT22;57789;53.868;10.728;2023-02-18T12:12:06;6.40;99.90
70368;DHT22;57789;53.868;10.728;2023-02-18T12:14:35;6.50;99.90
70368;DHT22;57789;53.868;10.728;2023-02-18T12:22:43;6.40;99.90
70368;DHT22;57789;53.868;10.728;2023-02-18T12:25:32;6.40;99.90
70368;DHT22;57789;53.868;10.728;2023-02-18T12:31:16;6.30;99.90
70368;DHT22;57789;53.868;10.728;2023-02-18T12:39:15;5.90;99.90
70368;DHT22;57789;53.868;10.728;2023-02-18T12:44:40;5.60;99.90
70368;DHT22;57789;53.868;10.728;2023-02-18T12:47:41;5.60;99.90
70368;DHT22;57789;53.868;10.728;2023-02-18T12:50:31;5.60;99.90
70368;DHT22;57789;53.868;10.728;2023-02-18T12:53:06;5.60;99.90
70368;DHT22;57789;53.868;10.728;2023-02-18T12:55:57;5.80;99.90
70368;DHT22;57789;53.868;10.728;2023-02-18T13:14:27;5.70;99.90
70368;DHT22;57789;53.868;10.728;2023-02-18T13:16:56;5.80;99.90
70368;DHT22;57789;53.868;10.728;2023-02-18T13:19:38;5.70;99.90
70368;DHT22;57789;53.868;10.728;2023-02-18T13:22:09;5.70;99.90
70368;DHT22;57789;53.868;10.728;2023-02-18T13:24:38;5.60;99.90
70368;DHT22;57789;53.868;10.728;2023-02-18T13:32:43;5.50;99.90
70368;DHT22;57789;53.868;10.728;2023-02-18T13:37:53;5.50;99.90
70368;DHT22;57789;53.868;10.728;2023-02-18T13:40:26;5.40;99.90
70368;DHT22;57789;53.868;10.728;2023-02-18T13:43:15;5.40;99.90
70368;DHT22;57789;53.868;10.728;2023-02-18T13:45:40;5.30;99.90
70368;DHT22;57789;53.868;10.728;2023-02-18T13:48:22;5.30;99.90
70368;DHT22;57789;53.868;10.728;2023-02-18T13:50:51;5.30;99.90
70368;DHT22;57789;53.868;10.728;2023-02-18T13:53:23;5.30;99.90
70368;DHT22;57789;53.868;10.728;2023-02-18T13:55:59;5.30;99.90
70368;DHT22;57789;53.868;10.728;2023-02-18T13:58:49;5.30;99.90
70368;DHT22;57789;53.868;10.728;2023-02-18T14:04:00;5.40;99.90
70368;DHT22;57789;53.868;10.728;2023-02-18T14:06:35;5.40;99.90
70368;DHT22;57789;53.868;10.728;2023-02-18T14:14:52;5.30;99.90
70368;DHT22;57789;53.868;10.728;2023-02-18T14:19:53;5.40;99.90
70368;DHT22;57789;53.868;10.728;2023-02-18T14:22:47;5.50;99.90
70368;DHT22;57789;53.868;10.728;2023-02-18T14:27:40;5.40;99.90
70368;DHT22;57789;53.868;10.728;2023-02-18T14:32:45;5.10;99.90
70368;DHT22;57789;53.868;10.728;2023-02-18T14:35:39;5.00;99.90
70368;DHT22;57789;53.868;10.728;2023-02-18T14:49:39;5.10;99.90
70368;DHT22;57789;53.868;10.728;2023-02-18T14:52:53;5.10;99.90
70368;DHT22;57789;53.868;10.728;2023-02-18T14:55:04;5.10;99.90
70368;DHT22;57789;53.868;10.728;2023-02-18T14:57:51;5.10;99.90
70368;DHT22;57789;53.868;10.728;2023-02-18T15:00:23;5.10;99.90
70368;DHT22;57789;53.868;10.728;2023-02-18T15:02:54;5.10;99.90
70368;DHT22;57789;53.868;10.728;2023-02-18T15:05:26;5.00;99.90
70368;DHT22;57789;53.868;10.728;2023-02-18T15:08:09;5.00;99.90
70368;DHT22;57789;53.868;10.728;2023-02-18T15:10:47;4.90;99.90
70368;DHT22;57789;53.868;10.728;2023-02-18T15:13:20;4.90;99.90
70368;DHT22;57789;53.868;10.728;2023-02-18T15:15:51;4.90;99.90
70368;DHT22;57789;53.868;10.728;2023-02-18T15:18:35;4.90;99.90
70368;DHT22;57789;53.868;10.728;2023-02-18T15:21:02;5.00;99.90
70368;DHT22;57789;53.868;10.728;2023-02-18T15:23:29;5.10;99.90
70368;DHT22;57789;53.868;10.728;2023-02-18T15:25:56;5.20;99.90
70368;DHT22;57789;53.868;10.728;2023-02-18T15:28:28;5.50;99.90
70368;DHT22;57789;53.868;10.728;2023-02-18T15:30:58;5.70;99.90
70368;DHT22;57789;53.868;10.728;2023-02-18T15:33:25;5.80;99.90
70368;DHT22;57789;53.868;10.728;2023-02-18T15:35:51;5.90;99.90
70368;DHT22;57789;53.868;10.728;2023-02-18T15:38:24;5.50;99.90
70368;DHT22;57789;53.868;10.728;2023-02-18T15:40:51;5.20;99.90
70368;DHT22;57789;53.868;10.728;2023-02-18T15:43:21;5.10;99.90
70368;DHT22;57789;53.868;10.728;2023-02-18T15:45:49;5.00;99.90
70368;DHT22;57789;53.868;10.728;2023-02-18T15:50:57;4.90;99.90
70368;DHT22;57789;53.868;10.728;2023-02-18T15:53:24;5.00;99.90
70368;DHT22;57789;53.868;10.728;2023-02-18T15:55:52;5.10;99.90
70368;DHT22;57789;53.868;10.728;2023-02-18T16:03:22;5.10;99.90
70368;DHT22;57789;53.868;10.728;2023-02-18T16:05:49;5.10;99.90
70368;DHT22;57789;53.868;10.728;2023-02-18T16:08:26;5.00;99.90
70368;DHT22;57789;53.868;10.728;2023-02-18T16:13:49;4.70;99.90
70368;DHT22;57789;53.868;10.728;2023-02-18T16:16:36;4.60;99.90
70368;DHT22;57789;53.868;10.728;2023-02-18T16:19:04;4.50;99.90
70368;DHT22;57789;53.868;10.728;2023-02-18T16:21:39;4.40;99.90
70368;DHT22;57789;53.868;10.728;2023-02-18T16:24:26;4.30;99.90
70368;DHT22;57789;53.868;10.728;2023-02-18T16:26:58;4.30;99.90
70368;DHT22;57789;53.868;10.728;2023-02-18T16:29:41;4.30;99.90
70368;DHT22;57789;53.868;10.728;2023-02-18T16:32:07;4.30;99.90
70368;DHT22;57789;53.868;10.728;2023-02-18T16:34:32;4.30;99.90
70368;DHT22;57789;53.868;10.728;2023-02-18T16:37:00;4.30;99.90
70368;DHT22;57789;53.868;10.728;2023-02-18T16:39:44;4.30;99.90
70368;DHT22;57789;53.868;10.728;2023-02-18T16:42:13;4.30;99.90
70368;DHT22;57789;53.868;10.728;2023-02-18T16:44:39;4.20;99.90
70368;DHT22;57789;53.868;10.728;2023-02-18T16:47:05;4.20;99.90
70368;DHT22;57789;53.868;10.728;2023-02-18T16:49:33;4.20;99.90
70368;DHT22;57789;53.868;10.728;2023-02-18T16:52:00;4.20;99.90
70368;DHT22;57789;53.868;10.728;2023-02-18T16:54:30;4.20;99.90
70368;DHT22;57789;53.868;10.728;2023-02-18T16:56:55;4.20;99.90
70368;DHT22;57789;53.868;10.728;2023-02-18T16:59:21;4.20;99.90
70368;DHT22;57789;53.868;10.728;2023-02-18T17:01:46;4.10;99.90
70368;DHT22;57789;53.868;10.728;2023-02-18T17:04:15;4.20;99.90
70368;DHT22;57789;53.868;10.728;2023-02-18T17:06:42;4.20;99.90
70368;DHT22;57789;53.868;10.728;2023-02-18T17:09:17;4.20;99.90
70368;DHT22;57789;53.868;10.728;2023-02-18T17:11:47;4.20;99.90
70368;DHT22;57789;53.868;10.728;2023-02-18T17:14:18;4.10;99.90
70368;DHT22;57789;53.868;10.728;2023-02-18T17:16:49;4.10;99.90
70368;DHT22;57789;53.868;10.728;2023-02-18T17:19:16;4.00;99.90
70368;DHT22;57789;53.868;10.728;2023-02-18T17:21:42;4.00;99.90
70368;DHT22;57789;53.868;10.728;2023-02-18T17:24:15;4.00;99.90
70368;DHT22;57789;53.868;10.728;2023-02-18T17:26:41;4.00;99.90
70368;DHT22;57789;53.868;10.728;2023-02-18T17:29:07;4.00;99.90
70368;DHT22;57789;53.868;10.728;2023-02-18T17:31:36;4.00;99.90
70368;DHT22;57789;53.868;10.728;2023-02-18T17:34:06;3.90;99.90
70368;DHT22;57789;53.868;10.728;2023-02-18T17:36:32;3.90;99.90
70368;DHT22;57789;53.868;10.728;2023-02-18T17:38:59;4.00;99.90
70368;DHT22;57789;53.868;10.728;2023-02-18T17:41:25;4.00;99.90
70368;DHT22;57789;53.868;10.728;2023-02-18T17:43:51;4.00;99.90
70368;DHT22;57789;53.868;10.728;2023-02-18T17:46:18;4.10;99.90
70368;DHT22;57789;53.868;10.728;2023-02-18T17:48:44;4.10;99.90
70368;DHT22;57789;53.868;10.728;2023-02-18T17:51:22;4.10;99.90
70368;DHT22;57789;53.868;10.728;2023-02-18T17:53:48;4.10;99.90
70368;DHT22;57789;53.868;10.728;2023-02-18T17:56:14;4.10;99.90
70368;DHT22;57789;53.868;10.728;2023-02-18T17:58:40;4.20;99.90
70368;DHT22;57789;53.868;10.728;2023-02-18T18:01:07;4.20;99.90
70368;DHT22;57789;53.868;10.728;2023-02-18T18:03:33;4.20;99.90
70368;DHT22;57789;53.868;10.728;2023-02-18T18:05:59;4.20;99.90
70368;DHT22;57789;53.868;10.728;2023-02-18T18:08:26;4.20;99.90
70368;DHT22;57789;53.868;10.728;2023-02-18T18:10:54;4.20;99.90
70368;DHT22;57789;53.868;10.728;2023-02-18T18:13:30;4.20;99.90
70368;DHT22;57789;53.868;10.728;2023-02-18T18:15:57;4.30;99.90
70368;DHT22;57789;53.868;10.728;2023-02-18T18:18:23;4.30;99.90
70368;DHT22;57789;53.868;10.728;2023-02-18T18:20:55;4.30;99.90
70368;DHT22;57789;53.868;10.728;2023-02-18T18:23:21;4.30;99.90